FNHU/NOV METAR and TAF weather

Enter ICAO airport designator
Station Type Date Time Source
FNHU METAR 2019/08/20 16:00 UTC NOAA

FNHU 201600Z 12006KT 7000 FU NSC 26/M02 Q1022


Station Type Date Time Source
FNHU Decoded METAR 2019/08/20 16:00 UTC NOAA

Station name not available
Aug 20, 2019 - 12:00 PM EDT / 2019.08.20 1600 UTC
Wind: from the ESE (120 degrees) at 7 MPH (6 KT):0
Visibility: 4 mile(s):0
Weather: smoke
Temperature: 78 F (26 C)
Dew Point: 28 F (-2 C)
Relative Humidity: 15%
Pressure (altimeter): 30.18 in. Hg (1022 hPa)
ob: FNHU 201600Z 12006KT 7000 FU NSC 26/M02 Q1022
cycle: 16

Station Type Date Time Source
FNHU TAF 2019/08/20 12:03 UTC NOAA

TAF TAF FNHU 201100Z 2012/2024 11005KT CAVOK

Example: see airport list